Nautilus Survey — LIXR — position and weather

sailwx.info

Track history (hours):
 
Tides and Currents Weather Stations Pressure Air Temp Water Temp Dewpoint Dewpoint Depression Visibility Wind Speed Wind Dir Waves Ship Positions

Nautilus Survey

Last reported at 2016-Jul-23 06:33 UTC. Time now 2016-Jul-24 10:46 UTC.
Position N 66°52' E 013°36'.

Length 22 m; draft 2 m.

Type: Towing. MMSI: 259464000.

Date/timePositionNaut miles runAvg speedWind from/ knotsBaromVisibWave heightAir tempDewpointWater temp
2016-Jul-23 06:33N 66°52' E 013°36'0 0.0
2016-Jul-22 16:24N 66°52' E 013°36'0 0.3
2016-Jul-22 15:25N 66°52' E 013°36'0 0.0
2016-Jul-22 09:27N 66°52' E 013°36'0 0.0
2016-Jul-22 04:28N 66°52' E 013°36'0 0.0
2016-Jul-22 03:31N 66°52' E 013°36'0 0.0
2016-Jul-22 02:26N 66°52' E 013°36'0 0.0
2016-Jul-22 01:33N 66°52' E 013°36'0 0.0
2016-Jul-22 00:27N 66°52' E 013°36'0 0.0
2016-Jul-21 16:32N 66°52' E 013°36'28 1.1
2016-Jul-20 14:31N 66°33' E 012°46'9 9.4
2016-Jul-20 13:33N 66°24' E 012°46'5 0.2
2016-Jul-19 04:34N 66°29' E 012°46'19 5.6
2016-Jul-19 01:12N 66°45' E 013°12'4 6.1
2016-Jul-19 00:30N 66°49' E 013°16'6 5.8
2016-Jul-18 23:31N 66°53' E 013°25'5 5.2
2016-Jul-18 22:33N 66°58' E 013°31'6 5.7
2016-Jul-18 21:33N 67°01' E 013°43'6 5.9
2016-Jul-18 20:33N 67°05' E 013°55'6 5.8
2016-Jul-18 19:34N 67°10' E 014°03'6 6.0
2016-Jul-18 18:33N 67°15' E 014°10'6 6.0
2016-Jul-18 17:34N 67°20' E 014°19'6 6.1
2016-Jul-18 16:33N 67°25' E 014°27'6 6.0
2016-Jul-18 15:33N 67°31' E 014°23'14 5.9
2016-Jul-18 13:08N 67°45' E 014°18'4 6.1
2016-Jul-18 12:33N 67°49' E 014°21'26 1.5
2016-Jul-17 19:28N 68°14' E 014°33'0 0.0
2016-Jul-17 18:33N 68°14' E 014°33'0 0.0
2016-Jul-17 17:33N 68°14' E 014°33'0 0.0
2016-Jul-17 16:32N 68°14' E 014°33'1 0.8
2016-Jul-17 15:26N 68°13' E 014°32'1 0.2
2016-Jul-17 12:21N 68°13' E 014°34'0 0.0
2016-Jul-15 22:32N 68°14' E 014°34'0 0.0
2016-Jul-15 04:32N 68°14' E 014°34'0 0.0
2016-Jul-15 03:33N 68°14' E 014°34'0 0.0
2016-Jul-15 02:33N 68°14' E 014°34'0 0.0
2016-Jul-15 01:31N 68°14' E 014°34'0 0.0
2016-Jul-15 00:33N 68°14' E 014°34'0 0.0
2016-Jul-14 23:31N 68°14' E 014°34'0 0.0
2016-Jul-14 22:33N 68°14' E 014°34'0 0.0
2016-Jul-14 21:31N 68°14' E 014°34'0 0.0
2016-Jul-14 20:33N 68°14' E 014°34'25 1.8
2016-Jul-14 06:10N 67°49' E 014°19'4 6.7
2016-Jul-14 05:30N 67°45' E 014°17'8 6.5
2016-Jul-14 04:17N 67°37' E 014°15'5 6.4
2016-Jul-14 03:33N 67°32' E 014°14'10 6.9
2016-Jul-14 02:08N 67°23' E 014°06'4 6.9
2016-Jul-14 01:33N 67°19' E 014°07'7 6.7
2016-Jul-14 00:33N 67°12' E 014°05'7 6.9
2016-Jul-13 23:33N 67°06' E 013°57'7 6.9
2016-Jul-13 22:33N 67°01' E 013°44'7 6.8
2016-Jul-13 21:33N 66°57' E 013°29'6 6.1
2016-Jul-13 20:32N 66°52' E 013°21'21 6.4
2016-Jul-13 17:16N 66°37' E 012°47'5 6.7
2016-Jul-13 16:34N 66°32' E 012°46'7 6.5
2016-Jul-13 15:33N 66°25' E 012°44'7 6.6
2016-Jul-13 14:33N 66°19' E 012°40'6 6.1
2016-Jul-13 13:33N 66°14' E 012°30'  
Track history (hours):
 
Tides and Currents Weather Stations Pressure Air Temp Water Temp Dewpoint Dewpoint Depression Visibility Wind Speed Wind Dir Waves Ship Positions

Nautilus Survey

Last reported at 2016-Jul-23 06:33 UTC. Time now 2016-Jul-24 10:46 UTC.
Position N 66°52' E 013°36'.

Length 22 m; draft 2 m.

Type: Towing. MMSI: 259464000.

Date/timePositionNaut miles runAvg speedWind from/ knotsBaromVisibWave heightAir tempDewpointWater temp
2016-Jul-23 06:33N 66°52' E 013°36'0 0.0
2016-Jul-22 16:24N 66°52' E 013°36'0 0.3
2016-Jul-22 15:25N 66°52' E 013°36'0 0.0
2016-Jul-22 09:27N 66°52' E 013°36'0 0.0
2016-Jul-22 04:28N 66°52' E 013°36'0 0.0
2016-Jul-22 03:31N 66°52' E 013°36'0 0.0
2016-Jul-22 02:26N 66°52' E 013°36'0 0.0
2016-Jul-22 01:33N 66°52' E 013°36'0 0.0
2016-Jul-22 00:27N 66°52' E 013°36'0 0.0
2016-Jul-21 16:32N 66°52' E 013°36'28 1.1
2016-Jul-20 14:31N 66°33' E 012°46'9 9.4
2016-Jul-20 13:33N 66°24' E 012°46'5 0.2
2016-Jul-19 04:34N 66°29' E 012°46'19 5.6
2016-Jul-19 01:12N 66°45' E 013°12'4 6.1
2016-Jul-19 00:30N 66°49' E 013°16'6 5.8
2016-Jul-18 23:31N 66°53' E 013°25'5 5.2
2016-Jul-18 22:33N 66°58' E 013°31'6 5.7
2016-Jul-18 21:33N 67°01' E 013°43'6 5.9
2016-Jul-18 20:33N 67°05' E 013°55'6 5.8
2016-Jul-18 19:34N 67°10' E 014°03'6 6.0
2016-Jul-18 18:33N 67°15' E 014°10'6 6.0
2016-Jul-18 17:34N 67°20' E 014°19'6 6.1
2016-Jul-18 16:33N 67°25' E 014°27'6 6.0
2016-Jul-18 15:33N 67°31' E 014°23'14 5.9
2016-Jul-18 13:08N 67°45' E 014°18'4 6.1
2016-Jul-18 12:33N 67°49' E 014°21'26 1.5
2016-Jul-17 19:28N 68°14' E 014°33'0 0.0
2016-Jul-17 18:33N 68°14' E 014°33'0 0.0
2016-Jul-17 17:33N 68°14' E 014°33'0 0.0
2016-Jul-17 16:32N 68°14' E 014°33'1 0.8
2016-Jul-17 15:26N 68°13' E 014°32'1 0.2
2016-Jul-17 12:21N 68°13' E 014°34'0 0.0
2016-Jul-15 22:32N 68°14' E 014°34'0 0.0
2016-Jul-15 04:32N 68°14' E 014°34'0 0.0
2016-Jul-15 03:33N 68°14' E 014°34'0 0.0
2016-Jul-15 02:33N 68°14' E 014°34'0 0.0
2016-Jul-15 01:31N 68°14' E 014°34'0 0.0
2016-Jul-15 00:33N 68°14' E 014°34'0 0.0
2016-Jul-14 23:31N 68°14' E 014°34'0 0.0
2016-Jul-14 22:33N 68°14' E 014°34'0 0.0
2016-Jul-14 21:31N 68°14' E 014°34'0 0.0
2016-Jul-14 20:33N 68°14' E 014°34'25 1.8
2016-Jul-14 06:10N 67°49' E 014°19'4 6.7
2016-Jul-14 05:30N 67°45' E 014°17'8 6.5
2016-Jul-14 04:17N 67°37' E 014°15'5 6.4
2016-Jul-14 03:33N 67°32' E 014°14'10 6.9
2016-Jul-14 02:08N 67°23' E 014°06'4 6.9
2016-Jul-14 01:33N 67°19' E 014°07'7 6.7
2016-Jul-14 00:33N 67°12' E 014°05'7 6.9
2016-Jul-13 23:33N 67°06' E 013°57'7 6.9
2016-Jul-13 22:33N 67°01' E 013°44'7 6.8
2016-Jul-13 21:33N 66°57' E 013°29'6 6.1
2016-Jul-13 20:32N 66°52' E 013°21'21 6.4
2016-Jul-13 17:16N 66°37' E 012°47'5 6.7
2016-Jul-13 16:34N 66°32' E 012°46'7 6.5
2016-Jul-13 15:33N 66°25' E 012°44'7 6.6
2016-Jul-13 14:33N 66°19' E 012°40'6 6.1
2016-Jul-13 13:33N 66°14' E 012°30'  

Dump ship's entire track history